sensor_id;sensor_type;location;lat;lon;timestamp;pressure;altitude;pressure_sealevel;temperature;humidity
59951;BME280;45812;53.540;9.774;2023-02-21T00:01:07;101293.00;;;8.54;100.00
59951;BME280;45812;53.540;9.774;2023-02-21T00:03:51;101291.63;;;8.59;100.00
59951;BME280;45812;53.540;9.774;2023-02-21T00:06:35;101299.59;;;8.59;100.00
59951;BME280;45812;53.540;9.774;2023-02-21T00:09:18;101313.38;;;8.53;100.00
59951;BME280;45812;53.540;9.774;2023-02-21T00:12:03;101301.94;;;8.43;100.00
59951;BME280;45812;53.540;9.774;2023-02-21T00:14:46;101301.78;;;8.44;100.00
59951;BME280;45812;53.540;9.774;2023-02-21T00:17:30;101307.94;;;8.55;100.00
59951;BME280;45812;53.540;9.774;2023-02-21T00:20:14;101311.56;;;8.44;100.00
59951;BME280;45812;53.540;9.774;2023-02-21T00:22:58;101318.69;;;8.43;100.00
59951;BME280;45812;53.540;9.774;2023-02-21T00:25:42;101315.84;;;8.35;100.00
59951;BME280;45812;53.540;9.774;2023-02-21T00:28:26;101315.75;;;8.37;100.00
59951;BME280;45812;53.540;9.774;2023-02-21T00:31:10;101321.47;;;8.42;100.00
59951;BME280;45812;53.540;9.774;2023-02-21T00:33:54;101316.94;;;8.33;100.00
59951;BME280;45812;53.540;9.774;2023-02-21T00:36:37;101315.34;;;8.41;100.00
59951;BME280;45812;53.540;9.774;2023-02-21T00:39:21;101323.44;;;8.40;100.00
59951;BME280;45812;53.540;9.774;2023-02-21T00:42:05;101325.25;;;8.39;100.00
59951;BME280;45812;53.540;9.774;2023-02-21T00:44:49;101320.72;;;8.30;100.00
59951;BME280;45812;53.540;9.774;2023-02-21T00:47:33;101326.84;;;8.31;100.00
59951;BME280;45812;53.540;9.774;2023-02-21T00:50:17;101318.06;;;8.30;100.00
59951;BME280;45812;53.540;9.774;2023-02-21T00:53:01;101328.03;;;8.38;100.00
59951;BME280;45812;53.540;9.774;2023-02-21T00:55:45;101336.31;;;8.24;100.00
59951;BME280;45812;53.540;9.774;2023-02-21T00:58:29;101343.88;;;8.28;100.00
59951;BME280;45812;53.540;9.774;2023-02-21T01:01:12;101331.72;;;8.26;100.00
59951;BME280;45812;53.540;9.774;2023-02-21T01:03:57;101332.69;;;8.25;100.00
59951;BME280;45812;53.540;9.774;2023-02-21T01:06:41;101333.53;;;8.25;100.00
59951;BME280;45812;53.540;9.774;2023-02-21T01:09:25;101332.00;;;8.32;100.00
59951;BME280;45812;53.540;9.774;2023-02-21T01:12:09;101330.59;;;8.18;100.00
59951;BME280;45812;53.540;9.774;2023-02-21T01:14:53;101322.38;;;8.31;100.00
59951;BME280;45812;53.540;9.774;2023-02-21T01:17:36;101322.53;;;8.30;100.00
59951;BME280;45812;53.540;9.774;2023-02-21T01:20:20;101313.84;;;8.28;100.00
59951;BME280;45812;53.540;9.774;2023-02-21T01:23:04;101324.88;;;8.23;100.00
59951;BME280;45812;53.540;9.774;2023-02-21T01:25:48;101315.41;;;8.30;100.00
59951;BME280;45812;53.540;9.774;2023-02-21T01:28:32;101315.53;;;8.29;100.00
59951;BME280;45812;53.540;9.774;2023-02-21T01:31:17;101326.13;;;8.19;100.00
59951;BME280;45812;53.540;9.774;2023-02-21T01:34:01;101320.56;;;8.22;100.00
59951;BME280;45812;53.540;9.774;2023-02-21T01:36:45;101321.94;;;8.26;100.00
59951;BME280;45812;53.540;9.774;2023-02-21T01:39:29;101329.34;;;8.23;100.00
59951;BME280;45812;53.540;9.774;2023-02-21T01:42:13;101322.94;;;8.25;100.00
59951;BME280;45812;53.540;9.774;2023-02-21T01:48:21;101332.13;;;8.21;100.00
59951;BME280;45812;53.540;9.774;2023-02-21T01:51:09;101331.44;;;8.19;100.00
59951;BME280;45812;53.540;9.774;2023-02-21T01:53:54;101328.06;;;8.17;100.00
59951;BME280;45812;53.540;9.774;2023-02-21T01:56:38;101323.19;;;8.22;100.00
59951;BME280;45812;53.540;9.774;2023-02-21T01:59:23;101326.56;;;8.24;100.00
59951;BME280;45812;53.540;9.774;2023-02-21T02:02:15;101323.91;;;8.24;100.00
59951;BME280;45812;53.540;9.774;2023-02-21T02:05:00;101326.84;;;8.31;100.00
59951;BME280;45812;53.540;9.774;2023-02-21T02:07:45;101329.88;;;8.16;100.00
59951;BME280;45812;53.540;9.774;2023-02-21T02:10:29;101331.44;;;8.19;100.00
59951;BME280;45812;53.540;9.774;2023-02-21T02:13:24;101329.63;;;8.19;100.00
59951;BME280;45812;53.540;9.774;2023-02-21T02:16:21;101330.19;;;8.23;100.00
59951;BME280;45812;53.540;9.774;2023-02-21T02:19:04;101324.91;;;8.33;100.00
59951;BME280;45812;53.540;9.774;2023-02-21T02:21:41;101338.06;;;8.34;100.00
59951;BME280;45812;53.540;9.774;2023-02-21T02:27:19;101343.25;;;8.15;100.00
59951;BME280;45812;53.540;9.774;2023-02-21T02:32:34;101338.41;;;8.20;100.00
59951;BME280;45812;53.540;9.774;2023-02-21T02:37:51;101343.25;;;8.15;100.00
59951;BME280;45812;53.540;9.774;2023-02-21T02:41:18;101346.75;;;8.15;100.00
59951;BME280;45812;53.540;9.774;2023-02-21T02:43:54;101342.41;;;8.05;100.00
59951;BME280;45812;53.540;9.774;2023-02-21T02:46:23;101340.75;;;8.13;100.00
59951;BME280;45812;53.540;9.774;2023-02-21T02:48:57;101348.56;;;8.15;100.00
59951;BME280;45812;53.540;9.774;2023-02-21T02:51:24;101350.69;;;8.21;100.00
59951;BME280;45812;53.540;9.774;2023-02-21T02:53:49;101346.75;;;8.15;100.00
59951;BME280;45812;53.540;9.774;2023-02-21T02:56:15;101340.88;;;8.12;100.00
59951;BME280;45812;53.540;9.774;2023-02-21T02:58:49;101337.81;;;8.16;100.00
59951;BME280;45812;53.540;9.774;2023-02-21T03:07:06;101343.97;;;8.17;100.00
59951;BME280;45812;53.540;9.774;2023-02-21T03:12:31;101345.22;;;8.13;100.00
59951;BME280;45812;53.540;9.774;2023-02-21T03:15:04;101351.75;;;8.09;100.00
59951;BME280;45812;53.540;9.774;2023-02-21T03:17:33;101353.88;;;8.15;100.00
59951;BME280;45812;53.540;9.774;2023-02-21T03:20:02;101352.88;;;8.16;100.00
59951;BME280;45812;53.540;9.774;2023-02-21T03:22:28;101358.31;;;8.14;100.00
59951;BME280;45812;53.540;9.774;2023-02-21T03:24:57;101353.84;;;8.05;100.00
59951;BME280;45812;53.540;9.774;2023-02-21T03:27:24;101350.91;;;8.08;100.00
59951;BME280;45812;53.540;9.774;2023-02-21T03:29:53;101350.34;;;8.05;100.00
59951;BME280;45812;53.540;9.774;2023-02-21T03:32:33;101359.97;;;8.06;100.00
59951;BME280;45812;53.540;9.774;2023-02-21T03:34:59;101346.81;;;7.95;100.00
59951;BME280;45812;53.540;9.774;2023-02-21T03:37:40;101348.09;;;8.00;100.00
59951;BME280;45812;53.540;9.774;2023-02-21T03:40:09;101360.81;;;8.06;100.00
59951;BME280;45812;53.540;9.774;2023-02-21T03:42:35;101364.38;;;7.96;100.00
59951;BME280;45812;53.540;9.774;2023-02-21T03:45:01;101362.44;;;7.98;100.00
59951;BME280;45812;53.540;9.774;2023-02-21T03:47:26;101363.41;;;7.97;100.00
59951;BME280;45812;53.540;9.774;2023-02-21T03:49:51;101359.88;;;7.86;100.00
59951;BME280;45812;53.540;9.774;2023-02-21T03:52:16;101360.66;;;7.77;100.00
59951;BME280;45812;53.540;9.774;2023-02-21T03:54:42;101368.53;;;7.88;100.00
59951;BME280;45812;53.540;9.774;2023-02-21T03:57:08;101363.28;;;7.98;100.00
59951;BME280;45812;53.540;9.774;2023-02-21T03:59:33;101371.56;;;8.05;100.00
59951;BME280;45812;53.540;9.774;2023-02-21T04:01:58;101372.69;;;8.12;100.00
59951;BME280;45812;53.540;9.774;2023-02-21T04:04:24;101368.56;;;7.98;100.00
59951;BME280;45812;53.540;9.774;2023-02-21T04:06:49;101362.84;;;7.93;100.00
59951;BME280;45812;53.540;9.774;2023-02-21T04:09:14;101365.06;;;7.88;100.00
59951;BME280;45812;53.540;9.774;2023-02-21T04:11:43;101363.56;;;7.74;100.00
59951;BME280;45812;53.540;9.774;2023-02-21T04:14:09;101369.56;;;7.76;100.00
59951;BME280;45812;53.540;9.774;2023-02-21T04:16:35;101366.16;;;7.85;100.00
59951;BME280;45812;53.540;9.774;2023-02-21T04:19:00;101371.59;;;7.84;100.00
59951;BME280;45812;53.540;9.774;2023-02-21T04:21:25;101365.75;;;7.90;100.00
59951;BME280;45812;53.540;9.774;2023-02-21T04:23:50;101363.25;;;7.88;100.00
59951;BME280;45812;53.540;9.774;2023-02-21T04:26:16;101377.16;;;7.81;100.00
59951;BME280;45812;53.540;9.774;2023-02-21T04:28:41;101356.41;;;7.86;100.00
59951;BME280;45812;53.540;9.774;2023-02-21T04:31:06;101357.44;;;7.74;100.00
59951;BME280;45812;53.540;9.774;2023-02-21T04:33:31;101367.19;;;7.73;100.00
59951;BME280;45812;53.540;9.774;2023-02-21T04:35:57;101363.91;;;7.60;100.00
59951;BME280;45812;53.540;9.774;2023-02-21T04:38:22;101368.56;;;7.68;100.00
59951;BME280;45812;53.540;9.774;2023-02-21T04:40:47;101363.84;;;7.71;100.00
59951;BME280;45812;53.540;9.774;2023-02-21T04:43:12;101370.50;;;7.66;100.00
59951;BME280;45812;53.540;9.774;2023-02-21T04:45:38;101367.72;;;7.67;100.00
59951;BME280;45812;53.540;9.774;2023-02-21T04:48:03;101359.78;;;7.67;100.00
59951;BME280;45812;53.540;9.774;2023-02-21T04:50:28;101360.88;;;7.65;100.00
59951;BME280;45812;53.540;9.774;2023-02-21T04:52:54;101362.56;;;7.45;100.00
59951;BME280;45812;53.540;9.774;2023-02-21T04:55:19;101370.50;;;7.45;100.00
59951;BME280;45812;53.540;9.774;2023-02-21T04:57:44;101372.19;;;7.46;100.00
59951;BME280;45812;53.540;9.774;2023-02-21T05:00:10;101373.94;;;7.24;100.00
59951;BME280;45812;53.540;9.774;2023-02-21T05:02:36;101377.25;;;7.38;100.00
59951;BME280;45812;53.540;9.774;2023-02-21T05:05:01;101366.34;;;7.31;100.00
59951;BME280;45812;53.540;9.774;2023-02-21T05:07:27;101374.56;;;7.28;100.00
59951;BME280;45812;53.540;9.774;2023-02-21T05:09:52;101368.72;;;7.13;100.00
59951;BME280;45812;53.540;9.774;2023-02-21T05:12:17;101380.41;;;7.11;100.00
59951;BME280;45812;53.540;9.774;2023-02-21T05:14:42;101371.25;;;7.15;100.00
59951;BME280;45812;53.540;9.774;2023-02-21T05:17:08;101370.16;;;7.06;100.00
59951;BME280;45812;53.540;9.774;2023-02-21T05:19:33;101368.88;;;7.01;100.00
59951;BME280;45812;53.540;9.774;2023-02-21T05:22:00;101369.47;;;7.04;100.00
59951;BME280;45812;53.540;9.774;2023-02-21T05:24:29;101368.16;;;6.98;100.00
59951;BME280;45812;53.540;9.774;2023-02-21T05:26:56;101370.91;;;7.08;100.00
59951;BME280;45812;53.540;9.774;2023-02-21T05:29:22;101373.56;;;7.08;100.00
59951;BME280;45812;53.540;9.774;2023-02-21T05:31:48;101373.06;;;7.03;100.00
59951;BME280;45812;53.540;9.774;2023-02-21T05:34:14;101380.31;;;7.01;100.00
59951;BME280;45812;53.540;9.774;2023-02-21T05:36:39;101370.22;;;6.95;100.00
59951;BME280;45812;53.540;9.774;2023-02-21T05:39:05;101378.06;;;6.85;100.00
59951;BME280;45812;53.540;9.774;2023-02-21T05:41:31;101388.78;;;6.84;100.00
59951;BME280;45812;53.540;9.774;2023-02-21T05:43:57;101386.38;;;6.92;100.00
59951;BME280;45812;53.540;9.774;2023-02-21T05:46:28;101390.09;;;6.89;100.00
59951;BME280;45812;53.540;9.774;2023-02-21T05:48:54;101384.69;;;6.91;100.00
59951;BME280;45812;53.540;9.774;2023-02-21T05:51:20;101385.41;;;6.93;100.00
59951;BME280;45812;53.540;9.774;2023-02-21T05:53:46;101388.66;;;6.85;100.00
59951;BME280;45812;53.540;9.774;2023-02-21T05:56:11;101386.84;;;6.86;100.00
59951;BME280;45812;53.540;9.774;2023-02-21T05:58:37;101392.00;;;6.98;100.00
59951;BME280;45812;53.540;9.774;2023-02-21T06:01:03;101392.75;;;6.89;100.00
59951;BME280;45812;53.540;9.774;2023-02-21T06:03:28;101381.78;;;6.94;100.00
59951;BME280;45812;53.540;9.774;2023-02-21T06:05:53;101393.94;;;6.85;100.00
59951;BME280;45812;53.540;9.774;2023-02-21T06:08:19;101402.81;;;6.95;100.00
59951;BME280;45812;53.540;9.774;2023-02-21T06:10:44;101399.47;;;6.93;100.00
59951;BME280;45812;53.540;9.774;2023-02-21T06:13:09;101405.84;;;6.91;100.00
59951;BME280;45812;53.540;9.774;2023-02-21T06:15:34;101411.88;;;6.93;100.00
59951;BME280;45812;53.540;9.774;2023-02-21T06:18:00;101412.31;;;6.98;100.00
59951;BME280;45812;53.540;9.774;2023-02-21T06:20:25;101414.72;;;7.01;100.00
59951;BME280;45812;53.540;9.774;2023-02-21T06:22:50;101414.63;;;6.91;100.00
59951;BME280;45812;53.540;9.774;2023-02-21T06:25:16;101412.94;;;6.90;100.00
59951;BME280;45812;53.540;9.774;2023-02-21T06:27:42;101417.22;;;7.14;100.00
59951;BME280;45812;53.540;9.774;2023-02-21T06:30:08;101411.69;;;7.06;100.00
59951;BME280;45812;53.540;9.774;2023-02-21T06:32:34;101419.28;;;7.10;100.00
59951;BME280;45812;53.540;9.774;2023-02-21T06:34:59;101425.63;;;7.19;100.00
59951;BME280;45812;53.540;9.774;2023-02-21T06:37:24;101424.81;;;7.07;100.00
59951;BME280;45812;53.540;9.774;2023-02-21T06:39:50;101429.03;;;7.10;100.00
59951;BME280;45812;53.540;9.774;2023-02-21T06:42:15;101434.47;;;6.97;100.00
59951;BME280;45812;53.540;9.774;2023-02-21T06:44:45;101442.16;;;7.00;100.00
59951;BME280;45812;53.540;9.774;2023-02-21T06:47:11;101447.44;;;7.11;100.00
59951;BME280;45812;53.540;9.774;2023-02-21T06:49:36;101454.41;;;7.12;100.00
59951;BME280;45812;53.540;9.774;2023-02-21T06:52:02;101455.97;;;7.15;100.00
59951;BME280;45812;53.540;9.774;2023-02-21T06:54:27;101453.88;;;7.29;100.00
59951;BME280;45812;53.540;9.774;2023-02-21T06:56:54;101453.88;;;7.29;100.00
59951;BME280;45812;53.540;9.774;2023-02-21T06:59:19;101449.09;;;7.12;100.00
59951;BME280;45812;53.540;9.774;2023-02-21T07:01:44;101459.06;;;7.20;100.00
59951;BME280;45812;53.540;9.774;2023-02-21T07:04:10;101464.81;;;7.25;100.00
59951;BME280;45812;53.540;9.774;2023-02-21T07:06:35;101466.72;;;7.45;100.00
59951;BME280;45812;53.540;9.774;2023-02-21T07:09:00;101459.88;;;7.32;100.00
59951;BME280;45812;53.540;9.774;2023-02-21T07:11:26;101465.06;;;7.33;100.00
59951;BME280;45812;53.540;9.774;2023-02-21T07:13:53;101464.94;;;7.35;100.00
59951;BME280;45812;53.540;9.774;2023-02-21T07:16:21;101478.16;;;7.35;100.00
59951;BME280;45812;53.540;9.774;2023-02-21T07:18:47;101479.13;;;7.34;100.00
59951;BME280;45812;53.540;9.774;2023-02-21T07:21:13;101482.09;;;7.40;100.00
59951;BME280;45812;53.540;9.774;2023-02-21T07:23:39;101482.38;;;7.37;100.00
59951;BME280;45812;53.540;9.774;2023-02-21T07:26:04;101476.19;;;7.48;100.00
59951;BME280;45812;53.540;9.774;2023-02-21T07:28:29;101480.78;;;7.46;100.00
59951;BME280;45812;53.540;9.774;2023-02-21T07:30:54;101476.91;;;7.50;100.00
59951;BME280;45812;53.540;9.774;2023-02-21T07:33:20;101484.88;;;7.50;100.00
59951;BME280;45812;53.540;9.774;2023-02-21T07:35:45;101488.69;;;7.57;100.00
59951;BME280;45812;53.540;9.774;2023-02-21T07:38:19;101482.75;;;7.65;100.00
59951;BME280;45812;53.540;9.774;2023-02-21T07:40:44;101481.66;;;7.67;100.00
59951;BME280;45812;53.540;9.774;2023-02-21T07:43:09;101486.03;;;7.57;100.00
59951;BME280;45812;53.540;9.774;2023-02-21T07:45:35;101491.06;;;7.60;100.00
59951;BME280;45812;53.540;9.774;2023-02-21T07:48:00;101489.88;;;7.64;100.00
59951;BME280;45812;53.540;9.774;2023-02-21T07:50:25;101492.84;;;7.71;100.00
59951;BME280;45812;53.540;9.774;2023-02-21T07:52:50;101495.88;;;7.66;100.00
59951;BME280;45812;53.540;9.774;2023-02-21T07:55:16;101498.00;;;7.72;100.00
59951;BME280;45812;53.540;9.774;2023-02-21T07:57:41;101500.75;;;7.82;100.00
59951;BME280;45812;53.540;9.774;2023-02-21T08:00:07;101504.13;;;7.84;100.00
59951;BME280;45812;53.540;9.774;2023-02-21T08:02:32;101508.06;;;7.89;100.00
59951;BME280;45812;53.540;9.774;2023-02-21T08:04:57;101507.03;;;8.02;100.00
59951;BME280;45812;53.540;9.774;2023-02-21T08:07:23;101508.38;;;7.96;100.00
59951;BME280;45812;53.540;9.774;2023-02-21T08:09:49;101515.19;;;8.10;100.00
59951;BME280;45812;53.540;9.774;2023-02-21T08:12:15;101512.09;;;8.05;100.00
59951;BME280;45812;53.540;9.774;2023-02-21T08:14:40;101518.22;;;8.05;100.00
59951;BME280;45812;53.540;9.774;2023-02-21T08:17:06;101520.63;;;8.08;100.00
59951;BME280;45812;53.540;9.774;2023-02-21T08:19:31;101521.72;;;8.06;100.00
59951;BME280;45812;53.540;9.774;2023-02-21T08:21:56;101525.78;;;8.10;100.00
59951;BME280;45812;53.540;9.774;2023-02-21T08:24:21;101522.59;;;7.95;100.00
59951;BME280;45812;53.540;9.774;2023-02-21T08:26:47;101522.69;;;8.05;100.00
59951;BME280;45812;53.540;9.774;2023-02-21T08:29:13;101526.63;;;8.10;100.00
59951;BME280;45812;53.540;9.774;2023-02-21T08:31:40;101523.00;;;8.11;100.00
59951;BME280;45812;53.540;9.774;2023-02-21T08:34:06;101525.41;;;8.35;100.00
59951;BME280;45812;53.540;9.774;2023-02-21T08:36:34;101532.75;;;8.11;100.00
59951;BME280;45812;53.540;9.774;2023-02-21T08:39:00;101526.75;;;8.30;100.00
59951;BME280;45812;53.540;9.774;2023-02-21T08:41:34;101541.81;;;8.29;100.00
59951;BME280;45812;53.540;9.774;2023-02-21T08:43:59;101531.94;;;8.10;100.00
59951;BME280;45812;53.540;9.774;2023-02-21T08:46:24;101526.09;;;8.16;100.00
59951;BME280;45812;53.540;9.774;2023-02-21T08:48:50;101523.84;;;8.12;100.00
59951;BME280;45812;53.540;9.774;2023-02-21T08:51:15;101525.03;;;8.19;100.00
59951;BME280;45812;53.540;9.774;2023-02-21T08:53:40;101535.88;;;8.16;100.00
59951;BME280;45812;53.540;9.774;2023-02-21T08:56:05;101534.66;;;8.20;100.00
59951;BME280;45812;53.540;9.774;2023-02-21T08:58:31;101527.00;;;8.38;100.00
59951;BME280;45812;53.540;9.774;2023-02-21T09:00:56;101537.03;;;8.65;100.00
59951;BME280;45812;53.540;9.774;2023-02-21T09:03:21;101531.13;;;8.92;100.00
59951;BME280;45812;53.540;9.774;2023-02-21T09:05:47;101535.75;;;8.90;100.00
59951;BME280;45812;53.540;9.774;2023-02-21T09:08:12;101539.91;;;8.83;100.00
59951;BME280;45812;53.540;9.774;2023-02-21T09:10:37;101550.19;;;8.66;100.00
59951;BME280;45812;53.540;9.774;2023-02-21T09:13:11;101544.28;;;8.63;100.00
59951;BME280;45812;53.540;9.774;2023-02-21T09:15:36;101546.88;;;8.74;100.00
59951;BME280;45812;53.540;9.774;2023-02-21T09:18:01;101546.81;;;8.95;100.00
59951;BME280;45812;53.540;9.774;2023-02-21T09:20:27;101543.28;;;8.85;100.00
59951;BME280;45812;53.540;9.774;2023-02-21T09:22:53;101547.47;;;8.87;100.00
59951;BME280;45812;53.540;9.774;2023-02-21T09:25:21;101547.75;;;8.84;100.00
59951;BME280;45812;53.540;9.774;2023-02-21T09:27:48;101545.25;;;8.92;100.00
59951;BME280;45812;53.540;9.774;2023-02-21T09:30:16;101549.84;;;8.90;100.00
59951;BME280;45812;53.540;9.774;2023-02-21T09:32:42;101547.75;;;8.84;100.00
59951;BME280;45812;53.540;9.774;2023-02-21T09:35:08;101557.72;;;8.71;100.00
59951;BME280;45812;53.540;9.774;2023-02-21T09:37:38;101558.94;;;8.57;100.00
59951;BME280;45812;53.540;9.774;2023-02-21T09:40:54;101568.50;;;8.48;100.00
59951;BME280;45812;53.540;9.774;2023-02-21T09:42:53;101571.47;;;8.55;100.00
59951;BME280;45812;53.540;9.774;2023-02-21T09:45:21;101570.31;;;8.69;100.00
59951;BME280;45812;53.540;9.774;2023-02-21T09:47:53;101577.97;;;8.93;100.00
59951;BME280;45812;53.540;9.774;2023-02-21T09:50:22;101565.63;;;9.13;100.00
59951;BME280;45812;53.540;9.774;2023-02-21T09:52:52;101567.31;;;9.14;100.00
59951;BME280;45812;53.540;9.774;2023-02-21T09:55:30;101578.09;;;9.22;100.00
59951;BME280;45812;53.540;9.774;2023-02-21T09:57:57;101580.66;;;9.43;100.00
59951;BME280;45812;53.540;9.774;2023-02-21T10:00:33;101580.09;;;9.39;100.00
59951;BME280;45812;53.540;9.774;2023-02-21T10:03:20;101583.06;;;9.55;100.00
59951;BME280;45812;53.540;9.774;2023-02-21T10:08:39;101585.13;;;9.42;100.00
59951;BME280;45812;53.540;9.774;2023-02-21T10:11:32;101580.41;;;9.55;100.00
59951;BME280;45812;53.540;9.774;2023-02-21T10:16:59;101583.13;;;9.94;100.00
59951;BME280;45812;53.540;9.774;2023-02-21T10:19:35;101580.44;;;10.03;100.00
59951;BME280;45812;53.540;9.774;2023-02-21T10:22:09;101579.06;;;10.09;100.00
59951;BME280;45812;53.540;9.774;2023-02-21T10:24:37;101580.88;;;10.09;100.00
59951;BME280;45812;53.540;9.774;2023-02-21T10:27:16;101579.78;;;10.30;100.00
59951;BME280;45812;53.540;9.774;2023-02-21T10:32:13;101587.47;;;10.43;100.00
59951;BME280;45812;53.540;9.774;2023-02-21T10:34:38;101597.50;;;10.59;100.00
59951;BME280;45812;53.540;9.774;2023-02-21T10:45:34;101602.88;;;10.40;99.11
59951;BME280;45812;53.540;9.774;2023-02-21T10:48:04;101608.44;;;10.17;100.00
59951;BME280;45812;53.540;9.774;2023-02-21T10:50:51;101607.91;;;10.04;100.00
59951;BME280;45812;53.540;9.774;2023-02-21T10:53:27;101605.09;;;9.96;100.00
59951;BME280;45812;53.540;9.774;2023-02-21T10:58:58;101613.88;;;9.77;100.00
59951;BME280;45812;53.540;9.774;2023-02-21T11:03:58;101610.38;;;9.67;100.00
59951;BME280;45812;53.540;9.774;2023-02-21T11:08:55;101603.84;;;9.31;100.00
59951;BME280;45812;53.540;9.774;2023-02-21T11:11:41;101607.53;;;9.09;100.00
59951;BME280;45812;53.540;9.774;2023-02-21T11:14:24;101604.09;;;9.28;100.00
59951;BME280;45812;53.540;9.774;2023-02-21T11:17:06;101596.59;;;9.33;100.00
59951;BME280;45812;53.540;9.774;2023-02-21T11:19:54;101607.91;;;9.35;100.00
59951;BME280;45812;53.540;9.774;2023-02-21T11:24:57;101613.94;;;9.47;100.00
59951;BME280;45812;53.540;9.774;2023-02-21T11:27:23;101607.34;;;9.31;100.00
59951;BME280;45812;53.540;9.774;2023-02-21T11:29:51;101609.28;;;9.29;100.00
59951;BME280;45812;53.540;9.774;2023-02-21T11:32:35;101602.75;;;9.33;100.00
59951;BME280;45812;53.540;9.774;2023-02-21T11:35:06;101612.06;;;9.28;100.00
59951;BME280;45812;53.540;9.774;2023-02-21T11:37:33;101606.53;;;9.40;100.00
59951;BME280;45812;53.540;9.774;2023-02-21T11:39:59;101598.47;;;9.52;100.00
59951;BME280;45812;53.540;9.774;2023-02-21T11:42:32;101603.66;;;9.82;100.00
59951;BME280;45812;53.540;9.774;2023-02-21T11:45:19;101606.78;;;9.97;100.00
59951;BME280;45812;53.540;9.774;2023-02-21T11:47:56;101601.72;;;10.03;100.00
59951;BME280;45812;53.540;9.774;2023-02-21T11:50:29;101611.81;;;9.90;100.00
59951;BME280;45812;53.540;9.774;2023-02-21T11:55:41;101611.41;;;10.14;100.00
59951;BME280;45812;53.540;9.774;2023-02-21T11:58:25;101609.56;;;9.86;100.00
59951;BME280;45812;53.540;9.774;2023-02-21T12:01:06;101611.09;;;9.79;100.00
59951;BME280;45812;53.540;9.774;2023-02-21T12:03:37;101607.84;;;9.65;100.00
59951;BME280;45812;53.540;9.774;2023-02-21T12:08:57;101600.97;;;9.53;100.00
59951;BME280;45812;53.540;9.774;2023-02-21T12:14:28;101612.03;;;9.49;100.00
59951;BME280;45812;53.540;9.774;2023-02-21T12:19:58;101618.19;;;9.49;100.00
59951;BME280;45812;53.540;9.774;2023-02-21T12:25:28;101603.03;;;9.40;100.00
59951;BME280;45812;53.540;9.774;2023-02-21T12:28:10;101608.34;;;9.40;100.00
59951;BME280;45812;53.540;9.774;2023-02-21T12:30:54;101609.50;;;9.57;100.00
59951;BME280;45812;53.540;9.774;2023-02-21T12:37:04;101612.53;;;9.33;100.00
59951;BME280;45812;53.540;9.774;2023-02-21T12:42:36;101620.78;;;9.39;100.00
59951;BME280;45812;53.540;9.774;2023-02-21T12:45:30;101613.75;;;9.29;100.00
59951;BME280;45812;53.540;9.774;2023-02-21T12:48:07;101609.94;;;9.12;100.00
59951;BME280;45812;53.540;9.774;2023-02-21T12:50:38;101616.94;;;8.92;100.00
59951;BME280;45812;53.540;9.774;2023-02-21T12:53:10;101610.47;;;8.85;100.00
59951;BME280;45812;53.540;9.774;2023-02-21T12:55:55;101603.09;;;9.19;100.00
59951;BME280;45812;53.540;9.774;2023-02-21T12:58:43;101606.50;;;9.31;100.00
59951;BME280;45812;53.540;9.774;2023-02-21T13:06:34;101604.78;;;9.80;100.00
59951;BME280;45812;53.540;9.774;2023-02-21T13:09:24;101610.44;;;10.06;100.00
59951;BME280;45812;53.540;9.774;2023-02-21T13:12:00;101609.03;;;10.50;100.00
59951;BME280;45812;53.540;9.774;2023-02-21T13:14:36;101612.38;;;10.52;100.00
59951;BME280;45812;53.540;9.774;2023-02-21T13:17:03;101608.03;;;10.51;100.00
59951;BME280;45812;53.540;9.774;2023-02-21T13:19:41;101601.59;;;10.63;100.00
59951;BME280;45812;53.540;9.774;2023-02-21T13:25:37;101600.00;;;10.80;100.00
59951;BME280;45812;53.540;9.774;2023-02-21T13:28:26;101593.19;;;10.95;100.00
59951;BME280;45812;53.540;9.774;2023-02-21T13:30:57;101602.22;;;10.84;100.00
59951;BME280;45812;53.540;9.774;2023-02-21T13:33:48;101594.69;;;10.80;100.00
59951;BME280;45812;53.540;9.774;2023-02-21T13:36:29;101597.84;;;10.93;100.00
59951;BME280;45812;53.540;9.774;2023-02-21T13:39:16;101598.97;;;10.90;100.00
59951;BME280;45812;53.540;9.774;2023-02-21T13:41:45;101594.44;;;10.64;100.00
59951;BME280;45812;53.540;9.774;2023-02-21T13:57:46;101589.13;;;9.67;100.00
59951;BME280;45812;53.540;9.774;2023-02-21T14:10:38;101594.44;;;9.77;100.00
59951;BME280;45812;53.540;9.774;2023-02-21T14:15:58;101591.53;;;10.09;100.00
59951;BME280;45812;53.540;9.774;2023-02-21T14:18:28;101596.97;;;10.17;100.00
59951;BME280;45812;53.540;9.774;2023-02-21T14:20:55;101592.25;;;10.30;100.00
59951;BME280;45812;53.540;9.774;2023-02-21T14:23:23;101593.63;;;10.44;100.00
59951;BME280;45812;53.540;9.774;2023-02-21T14:26:00;101598.97;;;10.44;100.00
59951;BME280;45812;53.540;9.774;2023-02-21T14:34:24;101592.78;;;10.14;100.00
59951;BME280;45812;53.540;9.774;2023-02-21T14:36:52;101592.50;;;10.17;100.00
59951;BME280;45812;53.540;9.774;2023-02-21T14:39:18;101588.72;;;10.10;100.00
59951;BME280;45812;53.540;9.774;2023-02-21T14:44:54;101589.72;;;10.28;100.00
59951;BME280;45812;53.540;9.774;2023-02-21T14:50:18;101585.47;;;10.55;100.00
59951;BME280;45812;53.540;9.774;2023-02-21T14:55:48;101593.34;;;9.89;100.00
59951;BME280;45812;53.540;9.774;2023-02-21T14:58:31;101595.00;;;9.70;100.00
59951;BME280;45812;53.540;9.774;2023-02-21T15:04:32;101595.56;;;9.84;100.00
59951;BME280;45812;53.540;9.774;2023-02-21T15:06:39;101592.06;;;9.93;100.00
59951;BME280;45812;53.540;9.774;2023-02-21T15:09:16;101589.13;;;9.77;100.00
59951;BME280;45812;53.540;9.774;2023-02-21T15:11:43;101596.53;;;9.83;100.00
59951;BME280;45812;53.540;9.774;2023-02-21T15:14:16;101599.78;;;9.96;100.00